Time;durP1;ratioP1;P1;durP2;ratioP2;P2;SDS_P1;SDS_P2;PMS_P1;PMS_P2;Temp;Humidity;BMP_temperature;BMP_pressure;BME280_temperature;BME280_humidity;BME280_pressure;Samples;Min_cycle;Max_cycle;Signal;HPM_P1;HPM_P2
2021/09/08 00:02:00;;;;;;;4.32;2.35;;;;;;;22.93;50.54;98719.91;5091076;28;20024;-51
2021/09/08 00:04:26;;;;;;;5.85;2.90;;;;;;;22.90;50.30;98722.38;5091033;28;20517;-51
2021/09/08 00:06:52;;;;;;;9.07;2.90;;;;;;;22.89;50.87;98721.53;5090989;28;20074;-50
2021/09/08 00:09:18;;;;;;;6.40;2.80;;;;;;;22.82;51.08;98718.41;5072832;28;20498;-51
2021/09/08 00:11:44;;;;;;;6.40;2.65;;;;;;;22.79;51.31;98716.28;5090789;28;20509;-51
2021/09/08 00:14:10;;;;;;;3.30;2.70;;;;;;;22.73;51.26;98712.84;5090829;28;20020;-50
2021/09/08 00:16:36;;;;;;;5.75;3.08;;;;;;;22.67;51.87;98713.16;5072587;28;20134;-50
2021/09/08 00:19:01;;;;;;;4.72;2.90;;;;;;;22.63;52.03;98715.59;5072611;28;20038;-51
2021/09/08 00:21:27;;;;;;;8.85;3.00;;;;;;;22.62;52.09;98719.34;5090768;28;20024;-51
2021/09/08 00:23:55;;;;;;;4.80;2.78;;;;;;;22.60;52.28;98718.84;5011353;28;1342017;-51
2021/09/08 00:26:20;;;;;;;6.50;3.22;;;;;;;22.61;52.54;98723.09;5050135;28;20033;-51
2021/09/08 00:28:46;;;;;;;4.15;2.75;;;;;;;22.58;52.81;98722.84;5051590;28;20029;-50
2021/09/08 00:31:12;;;;;;;6.43;2.83;;;;;;;22.56;53.23;98716.97;5049963;28;20030;-51
2021/09/08 00:33:37;;;;;;;7.93;2.90;;;;;;;22.54;53.30;98723.41;5050032;28;20106;-51
2021/09/08 00:36:03;;;;;;;4.45;2.47;;;;;;;22.53;53.53;98723.69;5052803;28;20029;-50
2021/09/08 00:38:29;;;;;;;8.43;3.35;;;;;;;22.50;53.52;98724.25;5055204;28;20044;-51
2021/09/08 00:40:56;;;;;;;4.78;2.70;;;;;;;22.47;54.09;98720.25;5053840;28;20033;-51
2021/09/08 00:43:23;;;;;;;6.40;3.05;;;;;;;22.43;54.30;98727.22;5055141;28;20500;-51
2021/09/08 00:45:54;;;;;;;5.95;2.60;;;;;;;22.37;54.44;98736.34;5054902;28;20380;-50
2021/09/08 00:48:20;;;;;;;6.90;2.80;;;;;;;22.32;54.51;98728.38;5053693;28;20045;-51
2021/09/08 00:50:47;;;;;;;7.15;2.80;;;;;;;22.27;54.98;98721.16;5053645;28;20032;-51
2021/09/08 00:53:16;;;;;;;4.60;2.70;;;;;;;22.24;55.16;98726.28;5053667;28;20116;-51
2021/09/08 00:55:44;;;;;;;6.30;3.28;;;;;;;22.23;55.00;98730.78;5054785;28;20074;-51
2021/09/08 00:58:11;;;;;;;5.88;3.20;;;;;;;22.25;55.13;98730.53;5054849;28;20104;-51
2021/09/08 01:00:37;;;;;;;6.15;3.10;;;;;;;22.26;55.15;98734.84;5053460;28;20491;-52
2021/09/08 01:03:02;;;;;;;3.63;3.00;;;;;;;22.25;55.31;98735.88;5053426;28;20470;-51
2021/09/08 01:05:28;;;;;;;9.05;2.90;;;;;;;22.24;54.98;98731.63;5054673;28;20137;-51
2021/09/08 01:07:56;;;;;;;6.30;3.03;;;;;;;22.21;54.72;98727.59;5054629;28;20438;-52
2021/09/08 01:10:28;;;;;;;6.90;2.70;;;;;;;22.17;54.86;98728.41;5054575;28;20033;-51
2021/09/08 01:12:54;;;;;;;6.45;3.22;;;;;;;22.12;55.15;98729.25;5054578;28;20499;-51
2021/09/08 01:15:20;;;;;;;4.50;3.80;;;;;;;22.07;55.11;98730.09;5053191;28;20102;-51
2021/09/08 01:17:46;;;;;;;6.55;3.45;;;;;;;22.03;55.02;98734.34;5054497;28;20108;-51
2021/09/08 01:20:16;;;;;;;4.55;2.90;;;;;;;22.02;54.80;98730.09;5054626;28;20096;-51
2021/09/08 01:22:53;;;;;;;10.30;3.33;;;;;;;22.03;54.74;98720.19;5057389;28;20057;-51
2021/09/08 01:25:20;;;;;;;5.35;3.10;;;;;;;22.03;54.53;98723.66;5094599;28;20028;-51
2021/09/08 01:27:51;;;;;;;6.35;2.63;;;;;;;22.03;54.79;98722.88;5076277;28;20028;-51
2021/09/08 01:30:20;;;;;;;6.43;2.88;;;;;;;21.98;54.77;98722.91;5094538;28;20024;-51
2021/09/08 01:32:47;;;;;;;5.85;2.63;;;;;;;21.96;54.45;98725.84;5094380;28;20032;-51
2021/09/08 01:35:17;;;;;;;4.47;2.70;;;;;;;21.94;54.80;98703.94;5094300;28;20020;-51
2021/09/08 01:37:42;;;;;;;6.47;3.20;;;;;;;21.96;54.74;98715.16;5094324;28;20062;-51
2021/09/08 01:40:09;;;;;;;7.35;2.90;;;;;;;21.89;54.51;98717.31;5094270;28;20091;-51
2021/09/08 01:42:34;;;;;;;5.80;2.70;;;;;;;21.85;54.77;98711.75;5094122;28;20016;-51
2021/09/08 01:45:00;;;;;;;4.20;2.88;;;;;;;21.83;54.69;98713.88;5075968;28;20093;-51
2021/09/08 01:47:29;;;;;;;4.55;3.08;;;;;;;21.76;54.76;98712.56;5074642;28;20032;-50
2021/09/08 01:49:55;;;;;;;3.85;2.90;;;;;;;21.69;54.77;98712.84;5094072;28;20016;-51
2021/09/08 01:52:20;;;;;;;3.42;2.58;;;;;;;21.66;54.89;98714.19;5094082;28;20031;-51
2021/09/08 01:54:46;;;;;;;6.47;2.65;;;;;;;21.68;54.48;98714.72;5094013;28;20542;-52
2021/09/08 01:57:12;;;;;;;5.00;2.95;;;;;;;21.68;54.48;98717.41;5075719;28;20114;-51
2021/09/08 01:59:38;;;;;;;6.47;3.45;;;;;;;21.67;54.46;98712.31;5093940;28;20020;-51
2021/09/08 02:02:03;;;;;;;6.10;3.00;;;;;;;21.63;54.54;98709.41;5075663;28;20144;-51
2021/09/08 02:04:29;;;;;;;4.95;3.05;;;;;;;21.60;54.51;98701.16;5093855;28;20027;-51
2021/09/08 02:06:54;;;;;;;6.53;2.75;;;;;;;21.56;54.44;98697.41;5093728;28;20100;-51
2021/09/08 02:09:21;;;;;;;8.05;5.45;;;;;;;21.51;54.81;98698.22;5093664;28;20031;-51
2021/09/08 02:11:47;;;;;;;5.07;3.13;;;;;;;21.54;54.72;98697.69;5093729;28;20107;-51
2021/09/08 02:14:15;;;;;;;6.50;2.75;;;;;;;21.49;54.66;98698.50;5093656;28;20529;-51
2021/09/08 02:16:41;;;;;;;4.07;2.90;;;;;;;21.44;54.87;98695.84;5093471;28;20028;-51
2021/09/08 02:19:07;;;;;;;5.80;3.33;;;;;;;21.43;54.75;98701.44;5092350;28;20016;-51
2021/09/08 02:21:32;;;;;;;4.60;2.70;;;;;;;21.41;54.82;98700.88;5093513;28;20024;-51
2021/09/08 02:23:58;;;;;;;5.68;3.10;;;;;;;21.38;55.14;98701.44;5059709;28;20048;-51
2021/09/08 02:26:27;;;;;;;6.72;3.00;;;;;;;21.34;55.50;98696.63;5051905;28;20800;-51
2021/09/08 02:28:52;;;;;;;5.10;3.33;;;;;;;21.33;55.60;98695.03;5053134;28;20056;-51
2021/09/08 02:31:18;;;;;;;5.55;2.75;;;;;;;21.32;55.37;98693.44;5053024;28;20067;-50
2021/09/08 02:33:44;;;;;;;3.92;3.20;;;;;;;21.31;55.82;98691.84;5052973;28;20075;-51
2021/09/08 02:36:09;;;;;;;5.30;3.15;;;;;;;21.30;55.77;98694.78;5051615;28;20029;-51
2021/09/08 02:38:35;;;;;;;6.00;3.17;;;;;;;21.25;56.09;98694.78;5052915;28;20037;-51
2021/09/08 02:41:08;;;;;;;5.40;3.17;;;;;;;21.23;55.98;98692.41;5052919;28;20122;-51
2021/09/08 02:43:36;;;;;;;4.95;3.22;;;;;;;21.20;56.27;98692.91;5052813;28;20033;-51
2021/09/08 02:46:03;;;;;;;4.38;3.00;;;;;;;21.18;56.56;98697.72;5052794;28;20025;-50
2021/09/08 02:48:33;;;;;;;3.88;2.70;;;;;;;21.13;56.45;98682.53;5052997;28;20024;-50
2021/09/08 02:51:00;;;;;;;4.40;3.20;;;;;;;21.11;56.79;98686.56;5052731;28;20041;-50
2021/09/08 02:53:26;;;;;;;5.35;3.10;;;;;;;21.12;56.64;98682.78;5034973;28;20403;-51
2021/09/08 02:55:52;;;;;;;3.90;3.10;;;;;;;21.09;56.76;98681.47;5051493;28;20036;-51
2021/09/08 02:58:18;;;;;;;6.15;3.90;;;;;;;21.08;57.04;98671.84;5052083;28;20021;-51
2021/09/08 03:00:47;;;;;;;9.60;5.70;;;;;;;21.10;57.21;98674.25;5051212;28;20053;-50
2021/09/08 03:03:13;;;;;;;6.88;5.25;;;;;;;21.07;57.33;98683.63;5052521;28;20537;-51
2021/09/08 03:05:39;;;;;;;11.57;5.68;;;;;;;21.08;57.56;98682.53;5052395;28;20060;-51
2021/09/08 03:08:04;;;;;;;10.93;5.82;;;;;;;21.13;57.49;98673.75;5051100;28;20033;-51
2021/09/08 03:10:34;;;;;;;11.52;7.00;;;;;;;21.13;57.52;98677.19;5052355;28;20096;-50
2021/09/08 03:13:00;;;;;;;10.10;7.97;;;;;;;21.08;57.88;98676.41;5052321;28;20082;-50
2021/09/08 03:15:26;;;;;;;12.97;8.07;;;;;;;21.07;57.96;98674.81;5052248;28;20020;-51
2021/09/08 03:17:51;;;;;;;10.20;6.60;;;;;;;20.99;58.22;98675.31;5050888;28;20507;-51
2021/09/08 03:20:17;;;;;;;10.88;6.50;;;;;;;20.86;58.45;98677.47;5050991;28;20106;-51
2021/09/08 03:22:43;;;;;;;9.90;7.03;;;;;;;20.78;58.93;98675.34;5053780;28;20031;-50
2021/09/08 03:25:09;;;;;;;11.38;6.82;;;;;;;20.70;59.17;98667.88;5074122;28;20032;-51
2021/09/08 03:27:35;;;;;;;7.30;4.97;;;;;;;20.65;59.55;98670.56;5074046;28;20024;-51
2021/09/08 03:30:01;;;;;;;10.25;4.85;;;;;;;20.65;59.61;98665.25;5092208;28;20547;-50
2021/09/08 03:32:26;;;;;;;6.35;5.05;;;;;;;20.61;59.75;98669.50;5092210;28;20032;-51
2021/09/08 03:34:52;;;;;;;9.18;4.65;;;;;;;20.53;60.04;98666.25;5073998;28;20405;-51
2021/09/08 03:37:18;;;;;;;11.60;4.85;;;;;;;20.50;60.26;98672.13;5073889;28;20035;-51
2021/09/08 03:39:44;;;;;;;6.07;4.35;;;;;;;20.49;60.31;98670.53;5092188;28;20028;-51
2021/09/08 03:42:09;;;;;;;6.75;4.00;;;;;;;20.49;60.28;98665.19;5092153;28;20410;-50
2021/09/08 03:44:35;;;;;;;7.97;4.53;;;;;;;20.45;60.55;98661.47;5073928;28;20020;-51
2021/09/08 03:47:01;;;;;;;8.82;4.13;;;;;;;20.41;60.75;98663.06;5090925;28;20054;-50
2021/09/08 03:49:26;;;;;;;5.13;3.75;;;;;;;20.40;60.85;98658.78;5073929;28;20086;-51
2021/09/08 03:51:53;;;;;;;6.63;3.72;;;;;;;20.42;60.93;98669.19;5092214;28;20107;-51
2021/09/08 03:54:19;;;;;;;5.25;3.63;;;;;;;20.37;61.08;98653.19;5091994;28;20397;-51
2021/09/08 03:56:45;;;;;;;10.00;4.40;;;;;;;20.37;61.20;98651.31;5073706;28;20105;-51
2021/09/08 03:59:11;;;;;;;5.22;3.50;;;;;;;20.40;61.11;98647.31;5073758;28;20025;-51
2021/09/08 04:01:36;;;;;;;8.50;4.72;;;;;;;20.49;60.99;98646.53;5091843;28;20034;-50
2021/09/08 04:04:02;;;;;;;5.75;3.67;;;;;;;20.44;60.88;98641.19;5090696;28;20393;-51
2021/09/08 04:06:28;;;;;;;11.75;5.00;;;;;;;20.42;61.16;98642.53;5073580;28;20055;-51
2021/09/08 04:08:53;;;;;;;6.60;4.10;;;;;;;20.39;61.17;98641.19;5091765;28;20085;-51
2021/09/08 04:11:20;;;;;;;7.03;3.70;;;;;;;20.37;61.21;98638.00;5077169;28;20086;-51
2021/09/08 04:13:45;;;;;;;5.88;3.97;;;;;;;20.37;61.37;98646.00;5096011;28;20099;-51
2021/09/08 04:16:11;;;;;;;6.97;4.60;;;;;;;20.41;61.24;98636.41;5095872;28;20103;-50
2021/09/08 04:18:37;;;;;;;8.77;3.75;;;;;;;20.37;61.18;98645.19;5077631;28;20039;-51
2021/09/08 04:21:03;;;;;;;6.40;4.07;;;;;;;20.31;61.19;98639.06;5095860;28;20122;-50
2021/09/08 04:23:29;;;;;;;5.95;3.92;;;;;;;20.30;61.18;98642.78;5095487;28;20056;-51
2021/09/08 04:25:54;;;;;;;8.38;3.80;;;;;;;20.27;61.19;98641.44;5096035;28;20051;-49
2021/09/08 04:28:20;;;;;;;5.95;3.30;;;;;;;20.28;61.19;98640.38;5095674;28;20024;-51
2021/09/08 04:30:46;;;;;;;6.25;3.60;;;;;;;20.29;61.20;98643.84;5094515;28;20028;-51
2021/09/08 04:33:12;;;;;;;4.50;3.75;;;;;;;20.30;61.16;98634.78;5077371;28;20086;-51
2021/09/08 04:35:40;;;;;;;6.10;3.75;;;;;;;20.31;61.13;98625.72;5077194;28;20505;-51
2021/09/08 04:38:05;;;;;;;7.75;3.53;;;;;;;20.30;60.93;98638.25;5095455;28;20028;-51
2021/09/08 04:40:31;;;;;;;12.45;4.00;;;;;;;20.22;61.16;98632.63;5095664;28;20027;-51
2021/09/08 04:42:57;;;;;;;6.03;4.47;;;;;;;20.22;61.11;98635.31;5095446;28;20095;-50
2021/09/08 04:45:23;;;;;;;9.95;3.75;;;;;;;20.25;60.96;98629.44;5095258;28;20044;-50
2021/09/08 04:47:48;;;;;;;5.63;3.65;;;;;;;20.27;60.58;98619.34;5095355;28;20405;-50
2021/09/08 04:50:15;;;;;;;5.45;3.92;;;;;;;20.25;60.38;98626.78;5077032;28;20028;-50
2021/09/08 04:52:41;;;;;;;5.60;3.47;;;;;;;20.39;59.97;98621.75;5095261;28;20042;-50
2021/09/08 04:55:07;;;;;;;6.88;4.03;;;;;;;20.45;59.56;98621.47;5095199;28;20020;-51
2021/09/08 04:57:33;;;;;;;11.25;4.75;;;;;;;20.46;59.48;98624.94;5076745;28;20108;-50
2021/09/08 04:59:59;;;;;;;6.07;4.75;;;;;;;20.57;58.96;98626.53;5095099;28;20024;-51
2021/09/08 05:02:25;;;;;;;7.28;3.72;;;;;;;20.60;58.80;98617.22;5095300;28;20036;-50
2021/09/08 05:04:50;;;;;;;6.80;4.45;;;;;;;20.61;58.42;98624.97;5093709;28;20016;-51
2021/09/08 05:07:16;;;;;;;5.90;4.03;;;;;;;20.63;58.76;98622.81;5076748;28;20036;-51
2021/09/08 05:09:42;;;;;;;10.70;3.90;;;;;;;20.55;58.82;98615.34;5094883;28;20028;-50
2021/09/08 05:12:10;;;;;;;7.90;4.03;;;;;;;20.57;58.65;98621.19;5076612;28;20123;-51
2021/09/08 05:14:36;;;;;;;8.45;4.38;;;;;;;20.58;58.56;98627.31;5094759;28;20046;-50
2021/09/08 05:17:07;;;;;;;5.20;3.60;;;;;;;20.59;58.63;98618.31;5076544;28;20379;-50
2021/09/08 05:19:34;;;;;;;6.88;3.60;;;;;;;20.57;58.68;98628.41;5093488;28;20031;-50
2021/09/08 05:21:59;;;;;;;6.28;4.25;;;;;;;20.49;58.76;98627.06;5093158;28;20025;-51
2021/09/08 05:24:25;;;;;;;6.68;4.72;;;;;;;20.49;59.13;98630.53;5094327;28;20097;-51
2021/09/08 05:26:51;;;;;;;5.68;3.63;;;;;;;20.67;58.52;98620.44;5094578;28;20023;-51
2021/09/08 05:29:17;;;;;;;14.05;6.00;;;;;;;20.97;58.44;98629.44;5076379;28;20028;-51
2021/09/08 05:31:43;;;;;;;7.90;4.45;;;;;;;21.19;57.21;98629.13;5094437;28;20394;-51
2021/09/08 05:34:09;;;;;;;8.13;4.18;;;;;;;21.40;56.16;98627.22;5076225;28;20493;-51
2021/09/08 05:36:35;;;;;;;9.32;3.78;;;;;;;21.59;55.31;98630.09;5094338;28;20028;-51
2021/09/08 05:39:00;;;;;;;39.92;30.75;;;;;;;21.63;55.32;98631.16;5094374;28;20032;-51
2021/09/08 05:41:27;;;;;;;377.08;311.23;;;;;;;21.74;54.68;98636.16;5076253;28;20016;-50
2021/09/08 05:43:52;;;;;;;254.68;227.05;;;;;;;21.86;54.88;98635.06;5076216;28;20405;-50
2021/09/08 05:46:18;;;;;;;234.07;208.35;;;;;;;22.11;53.74;98628.75;5094070;28;20024;-51
2021/09/08 05:48:44;;;;;;;47.25;35.63;;;;;;;22.29;53.03;98632.66;5094402;28;20032;-50
2021/09/08 05:51:09;;;;;;;19.27;13.52;;;;;;;22.44;52.67;98632.56;5094147;28;20103;-50
2021/09/08 05:53:35;;;;;;;21.10;12.25;;;;;;;22.62;51.55;98623.06;5075838;28;20166;-51
2021/09/08 05:56:01;;;;;;;20.48;11.93;;;;;;;22.84;51.25;98621.78;5093966;28;20013;-50
2021/09/08 05:58:26;;;;;;;12.82;9.05;;;;;;;23.13;50.33;98617.22;5075808;28;20039;-50
2021/09/08 06:00:52;;;;;;;13.25;5.55;;;;;;;23.49;49.44;98618.72;5075719;28;20123;-51
2021/09/08 06:03:18;;;;;;;8.55;5.10;;;;;;;23.80;48.56;98615.66;5092704;28;20371;-51
2021/09/08 06:05:43;;;;;;;5.60;3.97;;;;;;;24.01;47.81;98613.50;5093861;28;20024;-50
2021/09/08 06:08:09;;;;;;;16.90;5.70;;;;;;;23.95;48.48;98620.03;5093808;28;20375;-51
2021/09/08 06:10:36;;;;;;;7.45;4.30;;;;;;;23.78;48.41;98613.25;5075497;28;20024;-50
2021/09/08 06:13:02;;;;;;;9.77;4.15;;;;;;;23.68;48.49;98616.88;5093688;28;20542;-51
2021/09/08 06:15:28;;;;;;;6.15;4.10;;;;;;;23.65;48.49;98617.41;5075361;28;20036;-51
2021/09/08 06:17:54;;;;;;;8.52;3.83;;;;;;;23.68;47.95;98616.88;5075484;28;20017;-51
2021/09/08 06:20:19;;;;;;;11.93;5.22;;;;;;;23.82;48.53;98621.53;5093522;28;20485;-51
2021/09/08 06:22:45;;;;;;;5.70;4.13;;;;;;;24.15;47.86;98617.03;5075056;28;20063;-51
2021/09/08 06:25:11;;;;;;;7.43;4.40;;;;;;;24.50;46.57;98623.75;5075334;28;20028;-51
2021/09/08 06:27:37;;;;;;;4.50;3.78;;;;;;;24.81;45.46;98619.75;5075179;28;20028;-51
2021/09/08 06:30:05;;;;;;;17.27;10.88;;;;;;;24.95;45.46;98619.75;5075139;28;20486;-51
2021/09/08 06:32:31;;;;;;;25.02;17.23;;;;;;;24.95;45.72;98609.03;5074216;28;20566;-51
2021/09/08 06:34:59;;;;;;;9.38;8.10;;;;;;;24.95;45.43;98609.03;5075123;28;20038;-51
2021/09/08 06:37:25;;;;;;;22.00;13.52;;;;;;;25.06;45.18;98607.75;5093067;28;20025;-51
2021/09/08 06:39:51;;;;;;;23.05;14.48;;;;;;;25.40;44.47;98596.63;5075202;28;20081;-51
2021/09/08 06:42:16;;;;;;;12.73;6.60;;;;;;;25.80;43.42;98604.94;5093170;28;20430;-50
2021/09/08 06:44:43;;;;;;;10.43;5.15;;;;;;;26.39;42.49;98596.84;5074877;28;20032;-50
2021/09/08 06:47:09;;;;;;;8.52;7.63;;;;;;;26.96;41.31;98596.22;5093174;28;20037;-50
2021/09/08 06:49:35;;;;;;;8.07;4.95;;;;;;;27.45;40.28;98598.97;5093023;28;20664;-51
2021/09/08 06:52:00;;;;;;;5.53;4.13;;;;;;;27.74;38.90;98601.06;5092905;28;20016;-51
2021/09/08 06:54:26;;;;;;;8.35;4.70;;;;;;;27.93;39.10;98598.09;5092755;28;20077;-51
2021/09/08 06:56:52;;;;;;;7.07;4.28;;;;;;;28.17;37.91;98599.50;5092778;28;20012;-51
2021/09/08 06:59:18;;;;;;;6.55;4.63;;;;;;;28.46;37.74;98596.91;5092825;28;20074;-51
2021/09/08 07:01:43;;;;;;;12.93;6.05;;;;;;;28.87;37.67;98592.06;5074539;28;20031;-51
2021/09/08 07:04:09;;;;;;;5.97;3.95;;;;;;;29.06;36.10;98597.88;5074817;28;20517;-51
2021/09/08 07:06:35;;;;;;;4.05;3.38;;;;;;;29.01;36.38;98595.34;5074689;28;20020;-51
2021/09/08 07:09:01;;;;;;;4.75;3.65;;;;;;;29.03;36.48;98595.00;5092648;28;20028;-50
2021/09/08 07:11:26;;;;;;;5.53;4.07;;;;;;;28.80;36.78;98592.56;5092797;28;20076;-51
2021/09/08 07:13:52;;;;;;;6.13;4.93;;;;;;;28.47;36.85;98601.22;5074330;28;20451;-52
2021/09/08 07:16:18;;;;;;;8.88;4.47;;;;;;;28.17;37.87;98604.91;5074136;28;20032;-52
2021/09/08 07:18:43;;;;;;;8.30;3.72;;;;;;;28.29;37.89;98583.44;5092506;28;20032;-51
2021/09/08 07:21:09;;;;;;;6.10;4.00;;;;;;;28.47;37.13;98585.03;5074157;28;20122;-51
2021/09/08 07:23:35;;;;;;;8.13;4.13;;;;;;;28.40;37.11;98595.50;5092072;28;20036;-51
2021/09/08 07:26:01;;;;;;;5.95;4.00;;;;;;;28.23;37.44;98590.13;5092341;28;20099;-51
2021/09/08 07:28:28;;;;;;;4.93;3.38;;;;;;;28.15;37.74;98586.34;5092326;28;20042;-50
2021/09/08 07:30:53;;;;;;;6.07;3.92;;;;;;;28.18;37.89;98598.41;5092179;28;20103;-50
2021/09/08 07:33:24;;;;;;;6.55;3.58;;;;;;;28.28;37.85;98604.25;5092230;28;20119;-51
2021/09/08 07:35:50;;;;;;;10.90;4.65;;;;;;;28.27;37.90;98589.19;5092029;28;20066;-51
2021/09/08 07:38:18;;;;;;;9.57;3.75;;;;;;;28.38;37.56;98594.25;5092205;28;20107;-51
2021/09/08 07:40:44;;;;;;;7.65;3.90;;;;;;;28.33;37.77;98589.00;5092365;28;20461;-50
2021/09/08 07:43:10;;;;;;;7.30;3.70;;;;;;;28.71;36.84;98588.31;5073883;28;20066;-50
2021/09/08 07:45:39;;;;;;;4.45;3.53;;;;;;;28.82;36.19;98587.63;5092030;28;20038;-52
2021/09/08 07:48:08;;;;;;;6.15;3.85;;;;;;;28.96;36.33;98587.44;5073874;28;20452;-51
2021/09/08 07:50:33;;;;;;;7.03;3.85;;;;;;;29.43;35.68;98583.88;5091998;28;20025;-51
2021/09/08 07:52:59;;;;;;;8.55;3.70;;;;;;;29.37;35.43;98590.59;5073853;28;20031;-51
2021/09/08 07:55:25;;;;;;;8.10;4.10;;;;;;;29.32;35.23;98579.94;5091918;28;20082;-51
2021/09/08 07:57:50;;;;;;;4.53;3.55;;;;;;;28.98;35.88;98579.78;5073732;28;20107;-51
2021/09/08 08:00:16;;;;;;;10.00;4.05;;;;;;;29.34;35.77;98588.53;5091881;28;20461;-51
2021/09/08 08:02:44;;;;;;;6.55;4.60;;;;;;;29.70;34.41;98585.28;5091867;28;20032;-51
2021/09/08 08:05:10;;;;;;;5.45;4.43;;;;;;;29.81;34.20;98580.28;5073599;28;20497;-51
2021/09/08 08:07:36;;;;;;;6.30;3.58;;;;;;;29.81;34.08;98583.00;5091780;28;20028;-51
2021/09/08 08:10:02;;;;;;;7.38;3.83;;;;;;;29.95;33.73;98578.09;5073599;28;20028;-50
2021/09/08 08:12:29;;;;;;;9.77;5.60;;;;;;;30.02;33.65;98586.50;5091719;28;20050;-51
2021/09/08 08:14:55;;;;;;;9.55;4.13;;;;;;;30.22;33.31;98587.59;5091825;28;20066;-51
2021/09/08 08:17:20;;;;;;;5.70;3.83;;;;;;;30.44;33.20;98588.34;5091623;28;20481;-51
2021/09/08 08:19:49;;;;;;;9.63;4.18;;;;;;;30.45;32.96;98582.59;5073592;28;20023;-51
2021/09/08 08:22:16;;;;;;;6.05;4.30;;;;;;;30.84;32.49;98583.09;5074104;28;20024;-51
2021/09/08 08:24:42;;;;;;;7.38;3.50;;;;;;;31.15;32.19;98598.06;5091602;28;20051;-51
2021/09/08 08:27:07;;;;;;;7.72;3.75;;;;;;;31.41;31.25;98589.56;5073459;28;20032;-49
2021/09/08 08:29:33;;;;;;;5.97;4.05;;;;;;;31.54;31.21;98586.88;5091699;28;20024;-51
2021/09/08 08:31:59;;;;;;;7.03;3.38;;;;;;;31.70;30.49;98592.38;5073513;28;20025;-51
2021/09/08 08:34:25;;;;;;;8.30;3.53;;;;;;;31.85;30.40;98580.78;5091625;28;20508;-51
2021/09/08 08:36:51;;;;;;;9.27;3.85;;;;;;;32.21;30.04;98589.94;5073389;28;20024;-50
2021/09/08 08:39:17;;;;;;;5.53;3.60;;;;;;;32.21;29.50;98588.00;5091539;28;20523;-51
2021/09/08 08:41:43;;;;;;;5.60;3.30;;;;;;;32.32;29.10;98591.03;5073393;28;20524;-50
2021/09/08 08:44:10;;;;;;;3.45;2.90;;;;;;;32.16;29.83;98591.00;5091508;28;20103;-50
2021/09/08 08:46:36;;;;;;;8.02;3.85;;;;;;;32.65;29.61;98595.38;5073321;28;20025;-51
2021/09/08 08:49:01;;;;;;;4.38;3.55;;;;;;;33.17;28.64;98585.41;5073316;28;20027;-52
2021/09/08 08:51:27;;;;;;;4.50;3.38;;;;;;;33.28;28.83;98580.19;5091409;28;20024;-51
2021/09/08 08:53:53;;;;;;;6.88;5.53;;;;;;;33.42;28.33;98580.50;5073408;28;20036;-51
2021/09/08 08:56:19;;;;;;;15.98;5.65;;;;;;;33.78;28.19;98584.81;5074712;28;20096;-50
2021/09/08 08:58:45;;;;;;;9.73;4.07;;;;;;;33.78;27.70;98584.81;5077071;28;20081;-51
2021/09/08 09:01:20;;;;;;;6.10;3.25;;;;;;;33.58;27.29;98583.19;5095081;28;20024;-51
2021/09/08 09:04:06;;;;;;;9.70;5.97;;;;;;;33.31;27.60;98588.44;5076857;28;20056;-51
2021/09/08 09:06:42;;;;;;;9.55;3.38;;;;;;;33.48;28.11;98583.75;5076803;28;20020;-51
2021/09/08 09:09:14;;;;;;;5.82;3.38;;;;;;;33.34;27.69;98576.06;5095005;28;20120;-51
2021/09/08 09:11:43;;;;;;;5.43;3.47;;;;;;;33.07;27.81;98578.53;5094924;28;20020;-51
2021/09/08 09:14:11;;;;;;;3.78;3.20;;;;;;;32.70;28.48;98572.59;5093705;28;20505;-52
2021/09/08 09:16:39;;;;;;;5.07;3.45;;;;;;;32.62;29.15;98582.53;5094679;28;20020;-51
2021/09/08 09:19:10;;;;;;;7.97;3.55;;;;;;;32.63;28.79;98578.66;5094982;28;20027;-51
2021/09/08 09:21:39;;;;;;;4.57;3.28;;;;;;;33.01;28.25;98577.22;5094803;28;20020;-51
2021/09/08 09:24:08;;;;;;;4.93;3.72;;;;;;;33.58;27.78;98569.59;5094503;28;20044;-51
2021/09/08 09:26:37;;;;;;;5.55;3.03;;;;;;;34.03;26.45;98570.91;5077172;28;20031;-51
2021/09/08 09:29:06;;;;;;;5.85;3.50;;;;;;;34.63;25.75;98573.16;5094605;28;20027;-51
2021/09/08 09:31:33;;;;;;;13.25;4.93;;;;;;;35.24;25.51;98573.41;5094570;28;20024;-51
2021/09/08 09:33:58;;;;;;;6.90;3.78;;;;;;;35.32;23.71;98561.44;5076258;28;20028;-51
2021/09/08 09:36:28;;;;;;;4.85;3.30;;;;;;;34.86;24.21;98566.97;5094334;28;20443;-52
2021/09/08 09:38:55;;;;;;;4.05;3.00;;;;;;;34.46;25.19;98569.00;5094630;28;20413;-51
2021/09/08 09:41:26;;;;;;;9.90;3.22;;;;;;;34.52;25.38;98558.59;5076132;28;20020;-51
2021/09/08 09:43:52;;;;;;;9.32;2.92;;;;;;;34.86;24.85;98564.25;5094581;28;20413;-51
2021/09/08 09:46:19;;;;;;;4.97;2.33;;;;;;;35.43;24.21;98559.63;5094233;28;20032;-51
2021/09/08 09:48:48;;;;;;;4.63;3.22;;;;;;;36.02;23.81;98567.38;5094226;28;20016;-51
2021/09/08 09:51:15;;;;;;;3.67;2.80;;;;;;;36.54;23.20;98555.44;5094403;28;20028;-51
2021/09/08 09:53:42;;;;;;;6.55;3.08;;;;;;;36.72;22.73;98554.81;5093838;28;20109;-51
2021/09/08 09:56:09;;;;;;;5.55;3.05;;;;;;;36.88;22.06;98560.78;5093944;28;20607;-51
2021/09/08 09:58:36;;;;;;;5.43;3.00;;;;;;;36.81;22.06;98549.81;5093949;28;20020;-51
2021/09/08 10:01:04;;;;;;;8.18;3.72;;;;;;;37.01;20.98;98544.88;5075744;28;20060;-53
2021/09/08 10:03:30;;;;;;;21.38;7.90;;;;;;;36.58;20.68;98555.44;5093832;28;20034;-51
2021/09/08 10:05:58;;;;;;;7.35;3.83;;;;;;;35.87;21.02;98556.28;5075655;28;20032;-50
2021/09/08 10:08:28;;;;;;;6.57;2.90;;;;;;;35.55;21.22;98559.38;5092642;28;20102;-51
2021/09/08 10:10:59;;;;;;;10.43;3.25;;;;;;;35.35;20.58;98545.09;5093692;28;20038;-52
2021/09/08 10:13:35;;;;;;;9.63;2.92;;;;;;;35.22;21.75;98551.16;5093993;28;20032;-51
2021/09/08 10:16:01;;;;;;;10.98;3.20;;;;;;;35.51;20.83;98538.66;5093045;28;20086;-51
2021/09/08 10:18:28;;;;;;;5.70;2.78;;;;;;;35.54;20.42;98532.47;5075442;28;20111;-51
2021/09/08 10:21:06;;;;;;;6.20;3.03;;;;;;;35.30;20.20;98548.16;5093499;28;20493;-51
2021/09/08 10:23:40;;;;;;;4.00;2.30;;;;;;;34.93;20.54;98526.16;5093212;28;20040;-51
2021/09/08 10:26:12;;;;;;;7.63;2.90;;;;;;;34.79;21.22;98522.06;5093547;28;20532;-51
2021/09/08 10:28:40;;;;;;;5.13;2.80;;;;;;;34.79;21.67;98526.72;5093672;28;20064;-50
2021/09/08 10:31:10;;;;;;;3.85;2.92;;;;;;;35.17;21.21;98535.88;5075181;28;20024;-51
2021/09/08 10:33:40;;;;;;;7.07;3.60;;;;;;;35.52;20.67;98499.31;5075143;28;20494;-51
2021/09/08 10:36:09;;;;;;;8.05;3.97;;;;;;;35.11;20.51;98532.66;5093148;28;20020;-50
2021/09/08 10:38:35;;;;;;;5.55;3.00;;;;;;;34.63;21.88;98518.66;5092079;28;20509;-51
2021/09/08 10:41:04;;;;;;;6.13;3.10;;;;;;;34.77;20.87;98504.47;5093185;28;20028;-51
2021/09/08 10:43:35;;;;;;;11.18;4.03;;;;;;;34.53;21.44;98514.63;5093058;28;20119;-51
2021/09/08 10:46:04;;;;;;;6.10;2.80;;;;;;;34.85;21.80;98524.47;5093169;28;20090;-51
2021/09/08 10:48:39;;;;;;;3.08;2.60;;;;;;;35.36;21.16;98511.19;5074839;28;20378;-51
2021/09/08 10:51:26;;;;;;;15.10;7.07;;;;;;;36.17;20.99;98518.00;5092875;28;20027;-51
2021/09/08 10:54:06;;;;;;;5.90;2.92;;;;;;;36.38;19.95;98511.97;5081836;28;20059;-51
2021/09/08 10:56:45;;;;;;;5.43;2.90;;;;;;;36.34;20.28;98504.88;5074656;28;20501;-52
2021/09/08 10:59:11;;;;;;;4.95;3.60;;;;;;;36.68;19.71;98523.91;5092830;28;20140;-51
2021/09/08 11:01:37;;;;;;;4.60;2.83;;;;;;;36.46;19.29;98509.25;5092814;28;20561;-52
2021/09/08 11:04:03;;;;;;;11.55;4.22;;;;;;;35.73;19.95;98509.72;5092761;28;20055;-51
2021/09/08 11:06:38;;;;;;;6.05;2.88;;;;;;;35.31;20.65;98502.53;5092697;28;20039;-51
2021/09/08 11:09:07;;;;;;;7.93;3.42;;;;;;;35.71;20.68;98515.53;5057828;28;20028;-51
2021/09/08 11:11:33;;;;;;;6.55;2.75;;;;;;;35.66;20.14;98490.50;5092589;28;20024;-51
2021/09/08 11:13:59;;;;;;;10.35;3.17;;;;;;;35.41;20.51;98499.16;5092606;28;20028;-50
2021/09/08 11:16:31;;;;;;;5.97;3.10;;;;;;;35.24;21.07;98494.28;5074224;28;20028;-51
2021/09/08 11:19:00;;;;;;;6.07;2.70;;;;;;;35.78;20.79;98485.59;5074053;28;20054;-51
2021/09/08 11:21:28;;;;;;;11.07;3.20;;;;;;;36.23;19.95;98490.34;5092439;28;20028;-51
2021/09/08 11:24:07;;;;;;;4.90;3.50;;;;;;;35.83;19.53;98476.28;5092229;28;20040;-51
2021/09/08 11:26:36;;;;;;;8.10;2.53;;;;;;;35.20;20.09;98491.50;5092331;28;20028;-51
2021/09/08 11:29:08;;;;;;;8.43;2.42;;;;;;;34.93;20.58;98486.06;5092335;28;20578;-50
2021/09/08 11:31:38;;;;;;;8.25;3.47;;;;;;;34.91;20.38;98484.81;5074137;28;20031;-51